Flight Track Log - Related Links

Times and Time Zones

All times are in EDT time to prevent confusion due to time zone crossing. See the N52712 flight status page for this flight to view local times or setup timezone preferences in your user account.


Time Position Orientation Groundspeed Altitude Reporting Facility
EDT Latitude Longitude Course Direction KTS MPH feet Rate Location/Type
Sun 01:59:26 PM 42.4667 -71.3000 28° Northeast 50 58 800  Level KA90
Sun 02:00:20 PM 42.4833 -71.3167 324° Northwest 63 72 1,400 874 Climbing KA90
Sun 02:01:09 PM 42.4833 -71.3333 270° West 68 78 2,300 336 Climbing KA90
Sun 02:02:07 PM 42.4833 -71.3667 270° West 99 114 2,000 -93 Descending KA90
Sun 02:03:18 PM 42.5333 -71.3667 360° North 113 130 2,100  Climbing KA90
Sun 02:04:19 PM 42.5667 -71.3667 360° North 113 130 2,000 49 Descending KA90
Sun 02:05:00 PM 42.4699 -71.2890 28° Northeast  Level Estimated
Sun 02:05:20 PM 42.5833 -71.3667 360° North 105 121 2,200  Level KA90
Sun 02:06:20 PM 42.6000 -71.3500 36° Northeast 100 115 2,600 429 Climbing KA90
Sun 02:07:26 PM 42.6333 -71.3167 36° Northeast 105 121 3,100 149 Climbing KA90
Sun 02:08:21 PM 42.6333 -71.2667 90° East 125 144 2,900  Descending KA90
Sun 02:09:25 PM 42.6500 -71.2333 56° Northeast 122 140 3,100 50 Climbing KA90
Sun 02:10:20 PM 42.6833 -71.2000 36° Northeast 130 150 3,000 -52 Descending KA90
Sun 02:11:20 PM 42.7000 -71.1667 56° Northeast 127 146 3,000 -50 Level KA90
Sun 02:12:20 PM 42.7167 -71.1167 66° East 130 150 2,900  Descending KA90
Sun 02:13:20 PM 42.7500 -71.0833 36° Northeast 122 140 3,000 -100 Climbing KA90
Sun 02:14:20 PM 42.7667 -71.0500 56° Northeast 122 140 2,700 -300 Descending KA90
Sun 02:15:20 PM 42.8000 -71.0167 36° Northeast 115 132 2,400 -353 Descending KA90
Sun 02:16:19 PM 42.8167 -71.0000 36° Northeast 113 130 2,000 -198 Descending KA90
Sun 02:17:21 PM 42.8500 -71.0000 360° North 109 125 2,000 49 Level KA90
Sun 02:18:21 PM 42.8333 -70.9833 144° Southeast 100 115 2,100  Climbing KA90
Sun 02:19:19 PM 42.8167 -71.0000 216° Southwest 92 106 2,000 -101 Descending KA90
Sun 02:20:20 PM 42.8000 -71.0167 216° Southwest 93 107 1,900 -198 Descending KA90
Sun 02:21:20 PM 42.7833 -71.0500 236° Southwest 89 102 1,600 -212 Descending KA90
Sun 02:22:13 PM 42.7667 -71.0667 216° Southwest 80 92 1,500 -212 Descending KA90
Sun 02:23:13 PM 42.7500 -71.0833 216° Southwest 84 97 1,200 -414 Descending KA90
Sun 02:24:09 PM 42.7333 -71.1000 216° Southwest 82 94 700 -143 Descending KA90
Sun 02:25:19 PM 42.7167 -71.1333 236° Southwest 86 99 900 353 Climbing KA90
Sun 02:26:08 PM 42.7000 -71.1500 216° Southwest 83 96 1,400 472 Climbing KA90
Sun 02:27:26 PM 42.6667 -71.1667 200° South 82 94 1,900 286 Climbing KA90
Sun 02:28:14 PM 42.6667 -71.1833 270° West 82 94 2,000 59 Climbing KA90
Sun 02:29:08 PM 42.6500 -71.2000 216° Southwest 86 99 2,000 -45 Level KA90
Sun 02:30:26 PM 42.6333 -71.2167 216° Southwest 106 122 1,900 -95 Descending KA90
Sun 02:31:14 PM 42.6500 -71.2000 36° Northeast 99 114 1,800 98 Descending KA90
Sun 02:32:28 PM 42.6333 -71.1667 124° Southeast 98 113 2,100 243 Climbing KA90

Login

Don't have an account? Register now (free) for customized features, flight alerts, and more!